This is the latest recevied weather packets stored in our database for station/object IU8HRV-10. If no packets are shown the sender has not sent any weather packets the latest 10 day(s).
| Time | Temp. | Humidity | Pressure | Rain* | Wind** | Luminosity | Snow |
|---|---|---|---|---|---|---|---|
| 1777711662 | 19.44° C | 31% | 1021 hPa | - | - | - | - |
| 1777710761 | 19.44° C | 31% | 1021 hPa | - | - | - | - |
| 1777709860 | 18.89° C | 32% | 1021 hPa | - | - | - | - |
| 1777708959 | 18.89° C | 32% | 1022 hPa | - | - | - | - |
| 1777708058 | 18.33° C | 32% | 1022 hPa | - | - | - | - |
| 1777707157 | 17.78° C | 33% | 1022 hPa | - | - | - | - |
| 1777706256 | 17.22° C | 33% | 1022 hPa | - | - | - | - |
| 1777705354 | 17.22° C | 33% | 1021 hPa | - | - | - | - |
| 1777704453 | 16.67° C | 34% | 1022 hPa | - | - | - | - |
| 1777703552 | 15° C | 38% | 1022 hPa | - | - | - | - |
| 1777702651 | 13.89° C | 40% | 1022 hPa | - | - | - | - |
| 1777701750 | 13.89° C | 40% | 1022 hPa | - | - | - | - |
| 1777700849 | 13.33° C | 41% | 1022 hPa | - | - | - | - |
| 1777699948 | 13.33° C | 42% | 1022 hPa | - | - | - | - |
| 1777699047 | 13.89° C | 44% | 1021 hPa | - | - | - | - |
| 1777698146 | 13.89° C | 39% | 1021 hPa | - | - | - | - |
| 1777697244 | 13.89° C | 40% | 1021 hPa | - | - | - | - |
| 1777696343 | 13.89° C | 40% | 1021 hPa | - | - | - | - |
| 1777695442 | 14.44° C | 39% | 1021 hPa | - | - | - | - |
| 1777694541 | 13.89° C | 39% | 1021 hPa | - | - | - | - |
| 1777693640 | 13.89° C | 39% | 1021 hPa | - | - | - | - |
| 1777692739 | 14.44° C | 39% | 1021 hPa | - | - | - | - |
| 1777691837 | 14.44° C | 38% | 1021 hPa | - | - | - | - |
| 1777690936 | 14.44° C | 38% | 1021 hPa | - | - | - | - |
| 1777690035 | 14.44° C | 38% | 1021 hPa | - | - | - | - |
* Rain since midnight (hover to see other rain measurements)
** Current wind speed in m/s (hover to see current wind gust speed)